createdAt,value
2018-12-22T00:00:35.860Z,10.39
2018-12-22T00:03:03.338Z,10.23
2018-12-22T00:05:30.810Z,10.36
2018-12-22T00:07:58.919Z,10.25
2018-12-22T00:10:26.682Z,10.35
2018-12-22T00:12:54.108Z,10.31
2018-12-22T00:15:21.560Z,10.22
2018-12-22T00:17:48.997Z,10.25
2018-12-22T00:20:16.431Z,10.34
2018-12-22T00:22:43.857Z,10.18
2018-12-22T00:25:11.299Z,10.23
2018-12-22T00:27:38.946Z,10.28
2018-12-22T00:30:07.596Z,10.30
2018-12-22T00:32:35.029Z,10.19
2018-12-22T00:35:02.489Z,10.25
2018-12-22T00:37:29.938Z,10.23
2018-12-22T00:39:57.380Z,10.37
2018-12-22T00:42:24.825Z,10.39
2018-12-22T00:44:52.277Z,10.14
2018-12-22T00:47:19.737Z,10.16
2018-12-22T00:49:47.177Z,10.13
2018-12-22T00:52:15.279Z,10.12
2018-12-22T00:54:42.718Z,10.02
2018-12-22T00:57:10.167Z,10.08
2018-12-22T00:59:37.608Z,10.01
2018-12-22T01:02:05.034Z,9.94
2018-12-22T01:04:32.471Z,10.13
2018-12-22T01:06:59.906Z,9.97
2018-12-22T01:09:27.394Z,10.01
2018-12-22T01:11:54.822Z,10.09
2018-12-22T01:14:22.258Z,10.13
2018-12-22T01:16:49.697Z,10.08
2018-12-22T01:19:17.131Z,9.94
2018-12-22T01:21:44.586Z,10.03
2018-12-22T01:24:12.007Z,9.83
2018-12-22T01:26:40.848Z,9.95
2018-12-22T01:29:08.286Z,10.00
2018-12-22T01:31:35.714Z,9.83
2018-12-22T01:34:03.149Z,9.81
2018-12-22T01:36:30.566Z,9.77
2018-12-22T01:38:58.028Z,9.74
2018-12-22T01:41:25.435Z,9.74
2018-12-22T01:43:52.890Z,9.80
2018-12-22T01:46:20.295Z,9.74
2018-12-22T01:48:47.813Z,9.75
2018-12-22T01:51:15.238Z,9.69
2018-12-22T01:53:42.723Z,9.70
2018-12-22T01:56:10.203Z,9.61
2018-12-22T01:58:37.622Z,9.71
2018-12-22T02:01:05.992Z,9.74
2018-12-22T02:03:33.426Z,9.57
2018-12-22T02:06:00.872Z,9.47
2018-12-22T02:08:28.308Z,9.71
2018-12-22T02:10:55.771Z,9.61
2018-12-22T02:13:23.203Z,9.58
2018-12-22T02:15:50.799Z,9.71
2018-12-22T02:18:18.258Z,9.68
2018-12-22T02:20:45.722Z,9.56
2018-12-22T02:23:13.151Z,9.63
2018-12-22T02:25:40.593Z,9.48
2018-12-22T02:28:08.028Z,9.61
2018-12-22T02:30:35.468Z,9.58
2018-12-22T02:33:02.905Z,9.58
2018-12-22T02:35:30.349Z,9.53
2018-12-22T02:37:57.826Z,9.50
2018-12-22T02:40:25.251Z,9.48
2018-12-22T02:42:52.695Z,9.42
2018-12-22T02:45:20.122Z,9.40
2018-12-22T02:47:47.542Z,9.51
2018-12-22T02:50:14.985Z,9.48
2018-12-22T02:52:42.444Z,9.78
2018-12-22T02:55:09.879Z,9.62
2018-12-22T02:57:37.488Z,9.82
2018-12-22T03:00:04.947Z,9.59
2018-12-22T03:02:32.366Z,9.70
2018-12-22T03:04:59.837Z,9.37
2018-12-22T03:07:27.256Z,9.50
2018-12-22T03:09:54.715Z,9.54
2018-12-22T03:12:22.161Z,9.70
2018-12-22T03:14:49.583Z,9.48
2018-12-22T03:17:17.039Z,9.43
2018-12-22T03:19:45.460Z,9.48
2018-12-22T03:22:12.899Z,9.54
2018-12-22T03:24:40.335Z,9.46
2018-12-22T03:27:07.782Z,9.52
2018-12-22T03:29:35.233Z,9.51
2018-12-22T03:32:02.660Z,9.65
2018-12-22T03:34:30.111Z,9.82
2018-12-22T03:36:57.554Z,9.68
2018-12-22T03:39:25.011Z,9.61
2018-12-22T03:41:52.711Z,9.69
2018-12-22T03:44:21.096Z,9.87
2018-12-22T03:46:49.719Z,9.91
2018-12-22T03:49:17.144Z,9.67
2018-12-22T03:51:44.597Z,9.60
2018-12-22T03:54:12.034Z,9.57
2018-12-22T03:56:40.168Z,9.54
2018-12-22T03:59:09.017Z,9.34
2018-12-22T04:01:36.503Z,9.32
2018-12-22T04:04:03.978Z,9.23
2018-12-22T04:06:31.401Z,9.30
2018-12-22T04:08:58.844Z,9.47
2018-12-22T04:11:26.305Z,9.40
2018-12-22T04:13:53.757Z,9.43
2018-12-22T04:16:21.208Z,9.40
2018-12-22T04:18:48.615Z,9.56
2018-12-22T04:21:17.740Z,9.44
2018-12-22T04:23:45.200Z,9.28
2018-12-22T04:26:12.751Z,9.31
2018-12-22T04:28:40.193Z,9.31
2018-12-22T04:31:07.639Z,9.36
2018-12-22T04:33:35.085Z,9.30
2018-12-22T04:36:02.527Z,9.30
2018-12-22T04:38:30.032Z,9.34
2018-12-22T04:40:57.476Z,9.42
2018-12-22T04:43:25.831Z,9.27
2018-12-22T04:45:53.360Z,9.29
2018-12-22T04:48:20.829Z,9.30
2018-12-22T04:50:48.278Z,9.34
2018-12-22T04:53:15.713Z,9.45
2018-12-22T04:55:43.129Z,9.51
2018-12-22T04:58:10.565Z,9.53
2018-12-22T05:00:38.011Z,9.48
2018-12-22T05:03:06.043Z,9.52
2018-12-22T05:05:33.510Z,9.56
2018-12-22T05:08:01.190Z,9.55
2018-12-22T05:10:28.486Z,9.53
2018-12-22T05:12:55.924Z,9.49
2018-12-22T05:15:23.363Z,9.54
2018-12-22T05:17:50.798Z,9.60
2018-12-22T05:20:18.247Z,9.52
2018-12-22T05:22:45.707Z,9.49
2018-12-22T05:25:13.143Z,9.59
2018-12-22T05:27:40.552Z,9.54
2018-12-22T05:30:08.022Z,9.46
2018-12-22T05:32:35.498Z,9.54
2018-12-22T05:35:02.933Z,9.53
2018-12-22T05:37:30.372Z,9.49
2018-12-22T05:39:57.821Z,9.57
2018-12-22T05:42:25.281Z,9.50
2018-12-22T05:44:52.693Z,9.55
2018-12-22T05:47:20.131Z,9.55
2018-12-22T05:49:47.565Z,9.71
2018-12-22T05:52:15.031Z,9.67
2018-12-22T05:54:42.489Z,9.71
2018-12-22T05:57:09.944Z,9.62
2018-12-22T05:59:37.354Z,9.63
2018-12-22T06:02:04.813Z,9.63
2018-12-22T06:04:32.274Z,9.58
2018-12-22T06:06:59.731Z,9.65
2018-12-22T06:09:27.143Z,9.65
2018-12-22T06:11:54.584Z,9.61
2018-12-22T06:14:22.013Z,9.72
2018-12-22T06:16:49.434Z,9.62
2018-12-22T06:19:16.870Z,9.61
2018-12-22T06:21:44.353Z,9.64
2018-12-22T06:24:13.176Z,9.62
2018-12-22T06:26:40.709Z,9.65
2018-12-22T06:29:08.165Z,9.63
2018-12-22T06:31:35.591Z,9.67
2018-12-22T06:34:03.043Z,9.63
2018-12-22T06:36:30.483Z,9.60
2018-12-22T06:38:57.984Z,9.63
2018-12-22T06:41:25.409Z,9.61
2018-12-22T06:43:52.862Z,9.63
2018-12-22T06:46:20.296Z,9.54
2018-12-22T06:48:47.745Z,9.48
2018-12-22T06:51:15.175Z,9.42
2018-12-22T06:53:42.634Z,9.38
2018-12-22T06:56:10.075Z,9.43
2018-12-22T06:58:37.487Z,9.45
2018-12-22T07:01:04.922Z,9.32
2018-12-22T07:03:32.350Z,9.17
2018-12-22T07:05:59.790Z,9.12
2018-12-22T07:08:27.209Z,9.18
2018-12-22T07:10:54.666Z,9.18
2018-12-22T07:13:22.104Z,9.09
2018-12-22T07:15:49.532Z,8.95
2018-12-22T07:18:16.970Z,8.93
2018-12-22T07:20:44.403Z,9.08
2018-12-22T07:23:11.837Z,8.98
2018-12-22T07:25:39.299Z,8.98
2018-12-22T07:28:06.721Z,8.96
2018-12-22T07:30:34.173Z,9.02
2018-12-22T07:33:01.661Z,8.99
2018-12-22T07:35:29.086Z,8.90
2018-12-22T07:37:56.534Z,8.97
2018-12-22T07:40:23.946Z,9.03
2018-12-22T07:42:53.458Z,9.00
2018-12-22T07:45:20.867Z,9.01
2018-12-22T07:47:48.307Z,9.02
2018-12-22T07:50:15.740Z,9.10
2018-12-22T07:52:51.445Z,9.11
2018-12-22T07:55:12.479Z,8.99
2018-12-22T07:57:39.949Z,9.04
2018-12-22T08:00:07.792Z,9.00
2018-12-22T08:02:35.205Z,8.91
2018-12-22T08:05:02.673Z,9.00
2018-12-22T08:07:30.131Z,9.13
2018-12-22T08:09:57.541Z,8.96
2018-12-22T08:12:24.975Z,9.02
2018-12-22T08:14:52.390Z,9.08
2018-12-22T08:17:20.584Z,9.13
2018-12-22T08:19:48.154Z,9.16
2018-12-22T08:22:15.606Z,9.07
2018-12-22T08:24:43.035Z,9.12
2018-12-22T08:27:10.462Z,9.11
2018-12-22T08:29:37.886Z,9.19
2018-12-22T08:32:05.370Z,9.21
2018-12-22T08:34:32.775Z,9.13
2018-12-22T08:37:00.249Z,9.19
2018-12-22T08:39:27.672Z,9.27
2018-12-22T08:41:55.075Z,9.17
2018-12-22T08:44:22.515Z,9.15
2018-12-22T08:46:49.956Z,9.25
2018-12-22T08:49:17.409Z,9.14
2018-12-22T08:51:44.909Z,9.19
2018-12-22T08:54:12.346Z,9.20
2018-12-22T08:56:39.793Z,9.22
2018-12-22T08:59:07.241Z,9.22
2018-12-22T09:01:34.675Z,9.15
2018-12-22T09:04:02.137Z,9.25
2018-12-22T09:06:29.543Z,9.35
2018-12-22T09:08:56.968Z,9.18
2018-12-22T09:11:24.395Z,9.24
2018-12-22T09:13:51.902Z,9.14
2018-12-22T09:16:19.342Z,9.30
2018-12-22T09:18:46.905Z,9.44
2018-12-22T09:21:14.359Z,9.30
2018-12-22T09:23:41.793Z,9.36
2018-12-22T09:26:09.209Z,9.23
2018-12-22T09:28:36.655Z,9.27
2018-12-22T09:31:04.083Z,9.21
2018-12-22T09:33:31.527Z,9.26
2018-12-22T09:35:59.009Z,9.31
2018-12-22T09:38:26.516Z,9.37
2018-12-22T09:40:53.934Z,9.26
2018-12-22T09:43:21.392Z,9.26
2018-12-22T09:45:48.838Z,9.34
2018-12-22T09:48:17.081Z,9.30
2018-12-22T09:50:44.700Z,9.37
2018-12-22T09:53:12.134Z,9.36
2018-12-22T09:55:39.602Z,9.44
2018-12-22T09:58:07.021Z,9.46
2018-12-22T10:00:34.465Z,9.31
2018-12-22T10:03:01.954Z,9.32
2018-12-22T10:05:29.365Z,9.30
2018-12-22T10:07:56.792Z,9.34
2018-12-22T10:10:24.213Z,9.48
2018-12-22T10:12:51.669Z,9.55
2018-12-22T10:15:19.103Z,9.41
2018-12-22T10:17:46.616Z,9.34
2018-12-22T10:20:14.058Z,9.48
2018-12-22T10:22:41.516Z,9.32
2018-12-22T10:25:08.949Z,9.41
2018-12-22T10:27:36.391Z,9.50
2018-12-22T10:30:03.848Z,9.62
2018-12-22T10:32:31.259Z,9.49
2018-12-22T10:34:58.713Z,9.48
2018-12-22T10:37:26.129Z,9.44
2018-12-22T10:39:53.555Z,9.54
2018-12-22T10:42:20.967Z,9.48
2018-12-22T10:44:48.389Z,9.67
2018-12-22T10:47:15.850Z,9.69
2018-12-22T10:49:43.399Z,9.55
2018-12-22T10:52:10.742Z,9.63
2018-12-22T10:54:38.217Z,9.54
2018-12-22T10:57:06.062Z,9.65
2018-12-22T10:59:33.481Z,9.69
2018-12-22T11:02:00.925Z,9.65
2018-12-22T11:04:28.355Z,9.83
2018-12-22T11:06:55.786Z,9.74
2018-12-22T11:09:23.198Z,9.79
2018-12-22T11:11:50.705Z,9.76
2018-12-22T11:14:18.138Z,9.77
2018-12-22T11:16:45.583Z,9.70
2018-12-22T11:19:13.061Z,9.86
2018-12-22T11:21:40.523Z,9.80
2018-12-22T11:24:07.950Z,9.73
2018-12-22T11:26:35.411Z,9.76
2018-12-22T11:29:02.910Z,9.72
2018-12-22T11:31:34.977Z,9.67
2018-12-22T11:33:57.785Z,9.70
2018-12-22T11:36:25.230Z,9.69
2018-12-22T11:38:52.680Z,9.62
2018-12-22T11:41:20.099Z,9.77
2018-12-22T11:43:47.547Z,9.78
2018-12-22T11:46:14.962Z,9.71
2018-12-22T11:48:42.468Z,9.91
2018-12-22T11:51:09.905Z,9.88
2018-12-22T11:53:37.343Z,9.92
2018-12-22T11:56:04.806Z,9.92
2018-12-22T11:58:32.278Z,9.92
2018-12-22T12:00:59.726Z,9.86
2018-12-22T12:03:27.146Z,9.93
2018-12-22T12:05:54.586Z,9.91
2018-12-22T12:08:21.991Z,9.88
2018-12-22T12:10:49.438Z,9.87
2018-12-22T12:13:16.862Z,9.86
2018-12-22T12:15:44.325Z,9.89
2018-12-22T12:18:21.234Z,9.95
2018-12-22T12:20:48.668Z,10.04
2018-12-22T12:23:16.121Z,10.04
2018-12-22T12:25:43.566Z,10.17
2018-12-22T12:28:11.102Z,10.21
2018-12-22T12:30:38.587Z,10.30
2018-12-22T12:33:06.096Z,10.35
2018-12-22T12:35:33.545Z,10.32
2018-12-22T12:38:00.965Z,10.23
2018-12-22T12:40:28.971Z,10.25
2018-12-22T12:42:56.762Z,10.13
2018-12-22T12:45:24.202Z,10.28
2018-12-22T12:47:51.661Z,10.28
2018-12-22T12:50:19.093Z,10.21
2018-12-22T12:52:46.534Z,10.22
2018-12-22T12:55:13.954Z,10.28
2018-12-22T12:57:41.405Z,10.49
2018-12-22T13:00:09.446Z,10.21
2018-12-22T13:02:36.922Z,10.21
2018-12-22T13:05:04.336Z,10.24
2018-12-22T13:07:31.786Z,10.14
2018-12-22T13:10:00.043Z,10.17
2018-12-22T13:12:27.599Z,10.27
2018-12-22T13:14:55.023Z,10.12
2018-12-22T13:17:22.465Z,10.15
2018-12-22T13:19:49.897Z,10.20
2018-12-22T13:22:17.347Z,10.06
2018-12-22T13:24:44.772Z,9.92
2018-12-22T13:27:12.218Z,9.89
2018-12-22T13:29:39.657Z,9.50
2018-12-22T13:32:09.677Z,9.67
2018-12-22T13:34:35.869Z,9.64
2018-12-22T13:37:03.322Z,9.69
2018-12-22T13:39:30.739Z,9.80
2018-12-22T13:41:58.176Z,9.77
2018-12-22T13:44:25.641Z,9.71
2018-12-22T13:46:53.104Z,9.57
2018-12-22T13:49:20.533Z,9.65
2018-12-22T13:51:47.956Z,9.61
2018-12-22T13:54:15.396Z,9.52
2018-12-22T13:56:42.810Z,9.54
2018-12-22T13:59:10.243Z,9.47
2018-12-22T14:01:37.679Z,9.44
2018-12-22T14:04:05.221Z,9.48
2018-12-22T14:06:32.643Z,9.27
2018-12-22T14:09:00.114Z,9.03
2018-12-22T14:11:27.546Z,8.99
2018-12-22T14:13:54.995Z,9.14
2018-12-22T14:16:22.405Z,9.16
2018-12-22T14:18:49.848Z,9.13
2018-12-22T14:21:17.322Z,9.13
2018-12-22T14:23:52.298Z,9.03
2018-12-22T14:26:19.759Z,8.89
2018-12-22T14:28:47.211Z,9.05
2018-12-22T14:31:14.632Z,8.74
2018-12-22T14:33:42.086Z,8.73
2018-12-22T14:36:09.572Z,8.71
2018-12-22T14:38:37.009Z,8.80
2018-12-22T14:41:04.445Z,8.79
2018-12-22T14:43:32.813Z,8.75
2018-12-22T14:46:00.340Z,8.74
2018-12-22T14:48:27.759Z,8.69
2018-12-22T14:50:55.205Z,8.75
2018-12-22T14:53:22.626Z,8.66
2018-12-22T14:55:50.937Z,8.62
2018-12-22T14:58:18.448Z,8.78
2018-12-22T15:00:45.912Z,8.86
2018-12-22T15:03:13.372Z,8.91
2018-12-22T15:05:40.812Z,8.81
2018-12-22T15:08:08.281Z,8.95
2018-12-22T15:10:35.713Z,8.87
2018-12-22T15:13:03.171Z,8.93
2018-12-22T15:15:30.586Z,8.90
2018-12-22T15:17:58.021Z,8.76
2018-12-22T15:20:26.358Z,8.74
2018-12-22T15:22:53.779Z,8.76
2018-12-22T15:25:21.256Z,8.89
2018-12-22T15:27:48.678Z,8.92
2018-12-22T15:30:16.145Z,8.58
2018-12-22T15:32:46.216Z,8.65
2018-12-22T15:35:11.073Z,8.55
2018-12-22T15:37:38.515Z,8.53
2018-12-22T15:40:09.661Z,8.58
2018-12-22T15:42:37.087Z,8.61
2018-12-22T15:45:14.556Z,8.52
2018-12-22T15:47:42.020Z,8.52
2018-12-22T15:50:13.225Z,8.63
2018-12-22T15:52:40.649Z,8.60
2018-12-22T15:55:08.105Z,8.63
2018-12-22T15:57:35.549Z,8.62
2018-12-22T16:00:03.086Z,8.58
2018-12-22T16:02:30.412Z,8.76
2018-12-22T16:04:57.875Z,8.80
2018-12-22T16:07:25.329Z,8.68
2018-12-22T16:09:52.788Z,8.62
2018-12-22T16:12:20.218Z,8.67
2018-12-22T16:14:47.649Z,8.84
2018-12-22T16:17:15.082Z,8.93
2018-12-22T16:19:42.527Z,9.06
2018-12-22T16:22:09.947Z,8.71
2018-12-22T16:24:37.388Z,8.77
2018-12-22T16:27:04.807Z,8.73
2018-12-22T16:29:32.291Z,8.73
2018-12-22T16:31:59.702Z,8.63
2018-12-22T16:34:27.133Z,8.55
2018-12-22T16:36:54.625Z,8.56
2018-12-22T16:39:22.058Z,8.51
2018-12-22T16:41:49.496Z,8.86
2018-12-22T16:44:16.949Z,8.83
2018-12-22T16:46:44.400Z,8.74
2018-12-22T16:49:11.871Z,8.73
2018-12-22T16:51:40.335Z,8.84
2018-12-22T16:54:08.790Z,8.65
2018-12-22T16:56:36.332Z,8.67
2018-12-22T16:59:03.801Z,8.68
2018-12-22T17:01:31.290Z,8.67
2018-12-22T17:03:58.703Z,8.68
2018-12-22T17:06:26.147Z,8.79
2018-12-22T17:08:53.581Z,8.73
2018-12-22T17:11:21.033Z,8.74
2018-12-22T17:13:48.470Z,8.79
2018-12-22T17:16:15.934Z,8.72
2018-12-22T17:18:43.447Z,8.79
2018-12-22T17:21:10.881Z,8.74
2018-12-22T17:23:39.809Z,8.91
2018-12-22T17:26:07.265Z,8.76
2018-12-22T17:28:34.698Z,8.78
2018-12-22T17:31:02.108Z,8.90
2018-12-22T17:33:29.569Z,8.78
2018-12-22T17:35:57.000Z,8.88
2018-12-22T17:38:26.382Z,8.97
2018-12-22T17:40:53.890Z,8.99
2018-12-22T17:43:21.330Z,8.90
2018-12-22T17:45:48.767Z,8.96
2018-12-22T17:48:16.190Z,8.86
2018-12-22T17:50:43.628Z,9.04
2018-12-22T17:53:11.061Z,8.89
2018-12-22T17:55:38.503Z,8.90
2018-12-22T17:58:05.915Z,8.87
2018-12-22T18:00:33.367Z,8.86
2018-12-22T18:03:00.790Z,8.92
2018-12-22T18:05:28.202Z,8.68
2018-12-22T18:07:55.859Z,8.64
2018-12-22T18:10:23.289Z,8.81
2018-12-22T18:12:50.754Z,8.89
2018-12-22T18:15:19.689Z,8.88
2018-12-22T18:17:47.150Z,8.68
2018-12-22T18:20:15.381Z,8.78
2018-12-22T18:22:42.841Z,8.76
2018-12-22T18:25:10.297Z,8.83
2018-12-22T18:27:37.725Z,8.74
2018-12-22T18:30:05.173Z,8.92
2018-12-22T18:32:32.633Z,8.64
2018-12-22T18:35:00.264Z,8.56
2018-12-22T18:37:27.553Z,8.63
2018-12-22T18:39:54.987Z,8.55
2018-12-22T18:42:22.417Z,8.62
2018-12-22T18:44:51.038Z,8.52
2018-12-22T18:47:18.530Z,8.58
2018-12-22T18:49:46.884Z,8.40
2018-12-22T18:52:14.346Z,8.65
2018-12-22T18:54:41.807Z,8.60
2018-12-22T18:57:09.249Z,8.56
2018-12-22T18:59:37.215Z,8.56
2018-12-22T19:02:04.635Z,8.66
2018-12-22T19:04:32.080Z,8.68
2018-12-22T19:06:59.543Z,8.65
2018-12-22T19:09:26.979Z,8.57
2018-12-22T19:11:54.445Z,8.55
2018-12-22T19:14:21.883Z,8.53
2018-12-22T19:16:49.324Z,8.74
2018-12-22T19:19:16.805Z,8.70
2018-12-22T19:21:44.239Z,8.74
2018-12-22T19:24:11.707Z,8.59
2018-12-22T19:26:39.129Z,8.59
2018-12-22T19:29:06.602Z,8.38
2018-12-22T19:31:41.534Z,8.72
2018-12-22T19:34:08.516Z,8.68
2018-12-22T19:36:35.943Z,8.59
2018-12-22T19:39:03.367Z,8.56
2018-12-22T19:41:30.884Z,8.46
2018-12-22T19:43:58.303Z,8.58
2018-12-22T19:46:26.786Z,8.72
2018-12-22T19:48:54.306Z,8.52
2018-12-22T19:51:21.768Z,8.57
2018-12-22T19:53:49.192Z,8.67
2018-12-22T19:56:16.673Z,8.54
2018-12-22T19:58:44.159Z,8.51
2018-12-22T20:01:11.585Z,8.66
2018-12-22T20:03:39.018Z,8.59
2018-12-22T20:06:06.474Z,8.55
2018-12-22T20:08:34.970Z,8.60
2018-12-22T20:11:02.459Z,8.58
2018-12-22T20:13:29.921Z,8.54
2018-12-22T20:15:57.466Z,8.60
2018-12-22T20:18:24.916Z,8.63
2018-12-22T20:20:52.350Z,8.53
2018-12-22T20:23:19.813Z,8.43
2018-12-22T20:25:47.291Z,8.36
2018-12-22T20:28:14.715Z,8.26
2018-12-22T20:30:42.982Z,8.28
2018-12-22T20:33:10.428Z,8.44
2018-12-22T20:35:37.856Z,8.43
2018-12-22T20:38:05.293Z,8.51
2018-12-22T20:40:32.867Z,8.37
2018-12-22T20:43:00.332Z,8.46
2018-12-22T20:45:27.761Z,8.35
2018-12-22T20:47:55.205Z,8.34
2018-12-22T20:50:22.615Z,8.30
2018-12-22T20:52:50.105Z,8.51
2018-12-22T20:55:17.538Z,8.43
2018-12-22T20:57:45.029Z,8.51
2018-12-22T21:00:12.690Z,8.39
2018-12-22T21:02:40.263Z,8.41
2018-12-22T21:05:07.717Z,8.54
2018-12-22T21:07:35.164Z,8.51
2018-12-22T21:10:02.622Z,8.48
2018-12-22T21:12:30.078Z,8.66
2018-12-22T21:14:57.510Z,8.61
2018-12-22T21:17:24.974Z,8.65
2018-12-22T21:19:52.413Z,8.74
2018-12-22T21:22:19.919Z,8.77
2018-12-22T21:24:47.514Z,8.54
2018-12-22T21:27:14.961Z,8.62
2018-12-22T21:29:42.518Z,8.46
2018-12-22T21:32:09.999Z,8.61
2018-12-22T21:34:37.460Z,8.47
2018-12-22T21:37:04.883Z,8.58
2018-12-22T21:39:32.322Z,8.59
2018-12-22T21:41:59.777Z,8.50
2018-12-22T21:44:27.280Z,8.51
2018-12-22T21:46:56.522Z,8.71
2018-12-22T21:49:24.073Z,8.59
2018-12-22T21:51:51.521Z,8.31
2018-12-22T21:54:18.941Z,8.26
2018-12-22T21:56:46.393Z,8.23
2018-12-22T21:59:13.819Z,8.32
2018-12-22T22:01:41.258Z,8.23
2018-12-22T22:04:08.684Z,8.47
2018-12-22T22:06:36.126Z,8.44
2018-12-22T22:09:03.558Z,8.42
2018-12-22T22:11:31.026Z,8.32
2018-12-22T22:13:58.462Z,8.26
2018-12-22T22:16:25.934Z,8.27
2018-12-22T22:18:53.347Z,8.40
2018-12-22T22:21:20.802Z,8.30
2018-12-22T22:23:48.248Z,8.30
2018-12-22T22:26:15.679Z,8.30
2018-12-22T22:28:43.134Z,8.27
2018-12-22T22:31:11.213Z,8.31
2018-12-22T22:33:38.643Z,8.44
2018-12-22T22:36:06.072Z,8.44
2018-12-22T22:38:33.520Z,8.40
2018-12-22T22:41:00.955Z,8.24
2018-12-22T22:43:28.395Z,8.26
2018-12-22T22:45:55.902Z,8.44
2018-12-22T22:48:23.394Z,8.41
2018-12-22T22:50:50.833Z,8.31
2018-12-22T22:53:18.313Z,8.36
2018-12-22T22:55:45.773Z,8.53
2018-12-22T22:58:13.195Z,8.33
2018-12-22T23:00:40.646Z,8.32
2018-12-22T23:03:08.069Z,8.45
2018-12-22T23:05:35.513Z,8.37
2018-12-22T23:08:02.960Z,8.31
2018-12-22T23:10:30.416Z,8.27
2018-12-22T23:12:57.840Z,8.49
2018-12-22T23:15:25.282Z,8.37
2018-12-22T23:17:52.723Z,8.53
2018-12-22T23:20:20.177Z,8.43
2018-12-22T23:22:47.613Z,8.44
2018-12-22T23:25:15.086Z,8.57
2018-12-22T23:27:42.526Z,8.34
2018-12-22T23:30:10.021Z,8.63
2018-12-22T23:32:37.456Z,8.33
2018-12-22T23:35:04.890Z,8.43
2018-12-22T23:37:32.384Z,8.50
2018-12-22T23:39:59.877Z,8.44
2018-12-22T23:42:27.313Z,8.42
2018-12-22T23:44:54.764Z,8.48
2018-12-22T23:47:22.203Z,8.47
2018-12-22T23:49:49.679Z,8.44
2018-12-22T23:52:17.125Z,8.46
2018-12-22T23:54:44.576Z,8.52
2018-12-22T23:57:12.009Z,8.39
2018-12-22T23:59:40.241Z,8.40
